Aérodrome :
LOGIN :

S'inscrire | Disclaimer

   EN    FR    IT 

 










Légende :    VFR   VFR Marginal   IFR   IFR Intensif   IFR Très Intensif
Visi : 
Plafond : 
>= 8 km
>= 3000ft
5 à 8 km
1000 à 3000 ft
1500m à 5 km
500 à 1000 ft
800 à 1500m
200 à 500 ft
< 800m
< 200 ft
Symboles :   Orages  Brouillard  Fortes neiges  Fortes précipitations  Vent > 20 kt
SIGMETs :   Divers  Orages  Givrage  Turbulence  Onde Orograph.  Cendres Volcan.






- Altitude de l'aérodrome : 362 ft
- Code IATA : WAW


EPWA - Warsaw Okecie

DERNIER METAR :
  • 071030Z 20013KT 170V230 CAVOK 21/M05 Q1030 NOSIG

METARs EXPIRÉS :
  • 071000Z 21010KT 170V250 CAVOK 19/M06 Q1030 NOSIG
  • 070930Z 20010KT 170V240 CAVOK 19/M06 Q1031 NOSIG
  • 070900Z 21008KT 160V260 CAVOK 18/M06 Q1031 NOSIG
  • 070830Z 22010KT 200V260 CAVOK 17/M05 Q1031 NOSIG
  • 070800Z 23010KT 190V260 CAVOK 17/M06 Q1031 NOSIG

TAF TAF EPWA
Valide du 07 à 09h jusqu'au 08 à 09h UTC


070830Z 0709/0809 21012KT CAVOK
PROB40
TEMPO 0709/0717 24015G25KT
BECMG 0719/0721 35005KT



MET'MAP, la Météo Aéronautique d'un coup d'oeil ! - Copyright ORBIFLY Décembre 2007 - Disclaimer

ORBIFLY MET'MAP TEAM :

Programmation & Développement : Alexandra Zaïnal
Sur une idée originale de : Baudouin d'Aumeries
Assistance à la programmation : Marc-Olivier Méhu
Soutien technique & logistique : Manuel Goepfert

Contact : metmap@orbifly.com




SOURCES & CREDITS :

   NOAA